Terminal Aerodrome Forecast
Issued by NWS

Current Version | Previous Version | Text Only | Print | Product List | Glossary On
Versions: 1 2 3 4 5 6 7 8 9 10 11 12 13 14 15 16 17 18 19 20 21 22 23 24 25 26 27 28 29 30 31 32 33
000
FTUS45 KPSR 240240 AAD
TAFPHX
TAF AMD
KPHX 240240Z 2403/2506 11020KT P6SM VCTS FEW040 BKN080CB BKN150
      TEMPO 2403/2404 11028G40KT 4SM +TSRA BLDU
     FM240400 12018G28KT P6SM VCTS BKN080CB BKN150 OVC200
     FM240500 VRB05KT P6SM VCSH SCT070 BKN100
     FM241200 15006KT P6SM VCSH FEW050 BKN090 BKN150
     FM241800 VRB05KT P6SM SCT060 BKN140 BKN200=

USA.gov is the U.S. government's official web portal to all federal, state and local government web resources and services.